• Join FlightAware (Why Join?)
  • Login
  • US Flag 
12:50PM EST


 

Airport Tracker/Info


-or-


 

Live Flight TrackerFlight Track Log ✈ UAL6148 ✈ 19 de Apr de 2013 ✈ KLNK - KDEN

Flight Track Log - Related Links

Times and Time Zones

All times are in EDT time to prevent confusion due to time zone crossing. See the UAL6148 flight status page for this flight to view local times or setup timezone preferences in your user account.

Time Position Orientation Groundspeed Altitude Reporting Facility
EDT Latitude Longitude Course Direction KTS MPH feet Rate Location/Type
08:45PM 40.8944 -96.8292 309° West 179 206 4,400  Level Minneapolis Center
08:46PM 40.8839 -96.9089 260° West 223 257 6,500 2,220 Climbing Minneapolis Center
08:47PM 40.8669 -96.9975 256° West 245 282 9,100 1,860 Climbing Minneapolis Center
08:48PM 40.8497 -97.0922 257° West 259 298 10,400 1,200 Climbing Minneapolis Center
08:49PM 40.8297 -97.2083 257° West 310 357 11,600 1,260 Climbing Minneapolis Center
08:50PM 40.8089 -97.3278 257° West 329 379 13,100 1,500 Climbing Minneapolis Center
08:51PM 40.7831 -97.4597 256° West 335 386 14,800 1,500 Climbing Minneapolis Center
08:52PM 40.7619 -97.5822 257° West 340 391 16,300 1,380 Climbing Minneapolis Center
08:53PM 40.7400 -97.7033 257° West 340 391 17,700 1,500 Climbing Minneapolis Center
08:54PM 40.7133 -97.8481 256° West 339 390 19,400 1,380 Climbing Minneapolis Center
08:55PM 40.6900 -97.9731 256° West 346 398 20,600 1,140 Climbing Minneapolis Center
08:56PM 40.6661 -98.1011 256° West 355 409 21,800 1,020 Climbing Minneapolis Center
08:57PM 40.6469 -98.2047 256° West 360 414 22,800 1,140 Climbing Minneapolis Center
08:58PM 40.6178 -98.3611 256° West 364 419 24,200 1,320 Climbing Minneapolis Center
09:00PM 40.6097 -98.4908 265° West 356 410 25,600 1,320 Climbing Minneapolis Center
09:01PM 40.6214 -98.6150 277° West 344 396 27,000 1,380 Climbing Minneapolis Center
09:02PM 40.6319 -98.7367 277° West 337 388 28,500 1,560 Climbing Minneapolis Center
09:03PM 40.6442 -98.8789 277° West 328 377 30,300 1,440 Climbing Minneapolis Center
09:04PM 40.6547 -98.9978 277° West 325 374 31,500 1,200 Climbing Minneapolis Center
09:05PM 40.6656 -99.1161 277° West 325 374 32,900 1,260 Climbing Minneapolis Center
09:05PM 40.6692 -99.1647 276° West 326 375 33,400 780 Climbing Denver Center
09:06PM 40.6794 -99.2869 276° West 334 384 34,100 960 Climbing Denver Center
09:07PM 40.6906 -99.4117 277° West 341 392 35,400 900 Climbing Denver Center
09:08PM 40.6994 -99.5350 275° West 337 388 36,000 240 Climbing Denver Center
09:09PM 40.7128 -99.6961 276° West 365 420 36,000  Level Denver Center
09:10PM 40.7231 -99.8356 276° West 379 436 36,000  Level Denver Center
09:11PM 40.7339 -99.9733 276° West 384 442 36,000  Level Denver Center
09:12PM 40.7461 -100.1086 277° West 388 447 36,000  Level Denver Center
09:13PM 40.7572 -100.2678 275° West 391 450 36,000  Level Denver Center
09:14PM 40.7672 -100.4022 276° West 386 444 36,000  Level Denver Center
09:15PM 40.7794 -100.5592 276° West 384 442 36,000  Level Denver Center
09:16PM 40.7803 -100.6808 271° West 381 438 36,000  Level Denver Center
09:17PM 40.7572 -100.8356 259° West 394 453 36,000  Level Denver Center
09:19PM 40.7311 -100.9950 258° West 396 456 36,000  Level Denver Center
09:20PM 40.7072 -101.1325 257° West 400 460 36,000  Level Denver Center
09:21PM 40.6797 -101.2939 257° West 404 465 36,000  Level Denver Center
09:22PM 40.6558 -101.4308 257° West 401 461 36,000  Level Denver Center
09:23PM 40.6325 -101.5642 257° West 393 452 36,000  Level Denver Center
09:24PM 40.6042 -101.7225 257° West 398 458 36,000  Level Denver Center
09:25PM 40.5797 -101.8569 257° West 396 456 36,000  Level Denver Center
09:26PM 40.5503 -102.0119 256° West 392 451 36,000  Level Denver Center
09:27PM 40.5253 -102.1472 256° West 396 456 36,000  Level Denver Center
09:28PM 40.4964 -102.3039 256° West 396 456 36,000  Level Denver Center
09:29PM 40.4717 -102.4369 256° West 392 451 36,000  Level Denver Center
09:30PM 40.4442 -102.5917 257° West 391 450 36,000  Level Denver Center
09:31PM 40.4178 -102.7258 256° West 388 447 36,000 -60 Level Denver Center
09:32PM 40.3914 -102.8625 256° West 385 443 35,900 -780 Descending Denver Center
09:33PM 40.3644 -103.0022 256° West 391 450 34,400 -1,800 Descending Denver Center
09:34PM 40.3389 -103.1408 256° West 390 449 32,300 -2,040 Descending Denver Center
09:35PM 40.3122 -103.2803 256° West 390 449 30,200 -2,700 Descending Denver Center
09:36PM 40.2803 -103.4467 256° West 401 461 26,800 -3,120 Descending Denver Center
09:37PM 40.2514 -103.5889 255° West 401 461 23,800 -2,880 Descending Denver Center
09:38PM 40.2239 -103.7306 256° West 402 463 20,900 -1,920 Descending Denver Center
09:39PM 40.1978 -103.8519 254° West 339 390 19,900 -1,800 Descending Denver Center
09:40PM 40.1528 -103.9578 241° Southwest 313 360 17,300 -2,220 Descending Denver Center
09:41PM 40.1072 -104.0528 238° Southwest 307 353 15,400 -1,140 Descending Denver Center
09:42PM 40.0619 -104.1522 239° Southwest 299 344 15,000 -960 Descending Denver Center
09:43PM 40.0203 -104.2411 239° Southwest 283 326 13,500 -1,020 Descending Denver Center
09:44PM 39.9786 -104.3300 239° Southwest 286 329 13,000 -300 Descending Denver Center
09:45PM 39.9333 -104.4167 236° Southwest 284 327 13,000 -780 Level Denver TRACON
09:46PM 39.8833 -104.4833 226° Southwest 277 319 11,500 -1,020 Descending Denver TRACON
09:47PM 39.8167 -104.5000 191° South 246 283 11,000 -900 Descending Denver TRACON
09:48PM 39.7500 -104.5000 180° South 238 274 9,700 -1,500 Descending Denver TRACON
09:49PM 39.7000 -104.5333 207° Southwest 246 283 8,100 -1,200 Descending Denver TRACON
09:50PM 39.6978 -104.5572 263° West 227 261 8,000 -600 Descending Denver Center
09:51PM 39.7367 -104.6294 305° West 221 254 7,300 -900 Descending Denver Center
09:52PM 39.7914 -104.6422 350° North 176 203 6,200 -900 Descending Denver Center
09:53PM 39.8283 -104.6417 North 138 159 5,500 -720 Descending Denver Center
09:55PM 39.8500 -104.6667 North  Level FlightAware Approximate
10:02PM 39.8617 -104.6732 North  Level Estimated
10:03PM 39.8617 -104.6732 North  Level Estimated
10:04PM 39.8617 -104.6732 North  Level Estimated